Time,TemperatureF,DewpointF,PressureIn,WindDirection,WindDirectionDegrees,WindSpeedMPH,WindSpeedGustMPH,Humidity,HourlyPrecipIn,Conditions,Clouds,dailyrainin,SoftwareType,DateUTC
2013-06-20 00:04:00,56.3,18.0,23.89,WSW,253,3.6,4.0,22,0.00,,---,0.00,VWS V14.01,2013-06-20 06:04:00,
2013-06-20 00:09:00,56.8,18.4,23.89,WSW,253,3.6,3.6,22,0.00,,---,0.00,VWS V14.01,2013-06-20 06:09:00,
2013-06-20 00:15:00,57.6,19.0,23.92,WSW,252,2.7,3.6,22,0.00,,---,0.00,VWS V14.01,2013-06-20 06:15:00,
2013-06-20 00:20:00,57.9,19.3,23.92,West,268,3.1,3.6,22,0.00,,---,0.00,VWS V14.01,2013-06-20 06:20:00,
2013-06-20 00:26:00,57.7,19.2,23.92,West,267,3.1,4.0,22,0.00,,---,0.00,VWS V14.01,2013-06-20 06:26:00,
2013-06-20 00:31:00,57.9,19.3,23.92,West,270,2.7,4.0,22,0.00,,---,0.00,VWS V14.01,2013-06-20 06:31:00,
2013-06-20 00:37:00,57.9,19.3,23.92,WSW,253,2.7,3.6,22,0.00,,---,0.00,VWS V14.01,2013-06-20 06:37:00,
2013-06-20 00:42:00,58.3,19.6,23.92,West,270,3.6,3.6,22,0.00,,---,0.00,VWS V14.01,2013-06-20 06:42:00,
2013-06-20 00:48:00,58.6,19.9,23.92,SW,231,2.7,3.6,22,0.00,,---,0.00,VWS V14.01,2013-06-20 06:48:00,
2013-06-20 00:53:00,58.8,20.1,23.92,WNW,291,3.1,3.1,22,0.00,,---,0.00,VWS V14.01,2013-06-20 06:53:00,
2013-06-20 00:58:00,58.8,20.1,23.92,SW,216,3.1,3.6,22,0.00,,---,0.00,VWS V14.01,2013-06-20 06:58:00,
2013-06-20 01:04:00,59.2,20.4,23.92,SW,235,3.1,4.0,22,0.00,,---,0.00,VWS V14.01,2013-06-20 07:04:00,
2013-06-20 01:09:00,59.2,17.0,23.92,SW,216,3.6,4.9,19,0.00,,---,0.00,VWS V14.01,2013-06-20 07:09:00,
2013-06-20 01:15:00,58.8,20.1,23.92,WSW,237,2.7,3.6,22,0.00,,---,0.00,VWS V14.01,2013-06-20 07:15:00,
2013-06-20 01:20:00,57.6,15.6,23.92,WSW,237,2.7,3.1,19,0.00,,---,0.00,VWS V14.01,2013-06-20 07:20:00,
2013-06-20 01:26:00,57.2,18.7,23.92,WSW,237,3.1,3.6,22,0.00,,---,0.00,VWS V14.01,2013-06-20 07:26:00,
2013-06-20 01:31:00,56.7,18.3,23.92,WSW,237,2.7,3.1,22,0.00,,---,0.00,VWS V14.01,2013-06-20 07:31:00,
2013-06-20 01:37:00,56.1,17.8,23.92,WSW,237,3.1,3.1,22,0.00,,---,0.00,VWS V14.01,2013-06-20 07:37:00,
2013-06-20 01:42:00,55.9,17.7,23.92,WSW,240,3.1,3.6,22,0.00,,---,0.00,VWS V14.01,2013-06-20 07:42:00,
2013-06-20 01:47:00,55.9,17.7,23.92,SSW,206,2.7,3.6,22,0.00,,---,0.00,VWS V14.01,2013-06-20 07:47:00,
2013-06-20 01:52:00,55.6,17.4,23.92,West,268,3.1,4.0,22,0.00,,---,0.00,VWS V14.01,2013-06-20 07:52:00,
2013-06-20 01:57:00,55.0,17.9,23.92,West,264,3.1,3.6,23,0.00,,---,0.00,VWS V14.01,2013-06-20 07:57:00,
2013-06-20 02:03:00,54.5,17.5,23.92,SW,230,2.7,3.6,23,0.00,,---,0.00,VWS V14.01,2013-06-20 08:03:00,
2013-06-20 02:08:00,53.8,16.9,23.92,SW,236,2.7,3.1,23,0.00,,---,0.00,VWS V14.01,2013-06-20 08:08:00,
2013-06-20 02:13:00,53.6,16.7,23.92,SW,236,3.1,3.1,23,0.00,,---,0.00,VWS V14.01,2013-06-20 08:13:00,
2013-06-20 02:18:00,53.1,16.3,23.92,SW,235,2.7,3.6,23,0.00,,---,0.00,VWS V14.01,2013-06-20 08:18:00,
2013-06-20 02:24:00,53.8,16.9,23.92,WSW,258,2.7,3.6,23,0.00,,---,0.00,VWS V14.01,2013-06-20 08:24:00,
2013-06-20 02:30:00,54.3,17.3,23.92,WNW,298,0.0,2.7,23,0.00,,---,0.00,VWS V14.01,2013-06-20 08:30:00,
2013-06-20 02:35:00,54.7,17.6,23.92,SW,214,2.2,4.0,23,0.00,,---,0.00,VWS V14.01,2013-06-20 08:35:00,
2013-06-20 02:40:00,55.2,18.1,23.92,SW,232,2.7,4.0,23,0.00,,---,0.00,VWS V14.01,2013-06-20 08:40:00,
2013-06-20 02:46:00,55.9,17.7,23.92,WSW,247,3.1,4.0,22,0.00,,---,0.00,VWS V14.01,2013-06-20 08:46:00,
2013-06-20 02:52:00,56.3,18.0,23.92,SW,222,4.0,4.0,22,0.00,,---,0.00,VWS V14.01,2013-06-20 08:52:00,
2013-06-20 02:57:00,56.1,15.6,23.92,West,278,3.1,3.1,20,0.00,,---,0.00,VWS V14.01,2013-06-20 08:57:00,
2013-06-20 03:03:00,55.9,17.7,23.92,WSW,246,2.2,3.6,22,0.00,,---,0.00,VWS V14.01,2013-06-20 09:03:00,
2013-06-20 03:08:00,55.0,17.9,23.92,SW,231,2.2,3.1,23,0.00,,---,0.00,VWS V14.01,2013-06-20 09:08:00,
2013-06-20 03:14:00,54.3,17.3,23.92,West,262,3.1,3.6,23,0.00,,---,0.00,VWS V14.01,2013-06-20 09:14:00,
2013-06-20 03:19:00,53.8,16.9,23.92,WSW,246,2.7,3.1,23,0.00,,---,0.00,VWS V14.01,2013-06-20 09:19:00,
2013-06-20 03:25:00,53.2,16.4,23.92,SW,216,3.1,3.1,23,0.00,,---,0.00,VWS V14.01,2013-06-20 09:25:00,
2013-06-20 03:30:00,53.1,16.3,23.92,SW,216,0.0,2.2,23,0.00,,---,0.00,VWS V14.01,2013-06-20 09:30:00,
2013-06-20 03:35:00,52.7,16.0,23.92,SW,216,2.2,2.2,23,0.00,,---,0.00,VWS V14.01,2013-06-20 09:35:00,
2013-06-20 03:40:00,52.9,14.0,23.92,SW,216,0.0,2.7,21,0.00,,---,0.00,VWS V14.01,2013-06-20 09:40:00,
2013-06-20 03:46:00,53.1,16.3,23.95,SW,216,2.7,2.7,23,0.00,,---,0.00,VWS V14.01,2013-06-20 09:46:00,
2013-06-20 03:51:00,52.3,15.7,23.95,SW,216,2.2,2.7,23,0.00,,---,0.00,VWS V14.01,2013-06-20 09:51:00,
2013-06-20 03:56:00,51.6,16.0,23.95,SW,216,2.7,3.1,24,0.00,,---,0.00,VWS V14.01,2013-06-20 09:56:00,
2013-06-20 04:01:00,50.7,15.3,23.95,SW,216,2.7,3.1,24,0.00,,---,0.00,VWS V14.01,2013-06-20 10:01:00,
2013-06-20 04:07:00,50.2,14.8,23.95,SW,216,2.7,2.7,24,0.00,,---,0.00,VWS V14.01,2013-06-20 10:07:00,
2013-06-20 04:13:00,49.8,14.5,23.95,SW,216,2.7,2.7,24,0.00,,---,0.00,VWS V14.01,2013-06-20 10:13:00,
2013-06-20 04:18:00,49.3,14.0,23.95,SW,216,0.0,2.7,24,0.00,,---,0.00,VWS V14.01,2013-06-20 10:18:00,
2013-06-20 04:24:00,48.7,13.6,23.95,SW,216,3.1,3.1,24,0.00,,---,0.00,VWS V14.01,2013-06-20 10:24:00,
2013-06-20 04:29:00,48.7,13.6,23.95,SW,216,2.7,2.7,24,0.00,,---,0.00,VWS V14.01,2013-06-20 10:29:00,
2013-06-20 04:35:00,48.7,13.6,23.95,SW,229,2.7,2.7,24,0.00,,---,0.00,VWS V14.01,2013-06-20 10:35:00,
2013-06-20 04:41:00,48.6,13.4,23.95,SW,229,2.7,2.7,24,0.00,,---,0.00,VWS V14.01,2013-06-20 10:41:00,
2013-06-20 04:46:00,48.2,14.9,23.95,SW,229,2.2,2.2,26,0.00,,---,0.00,VWS V14.01,2013-06-20 10:46:00,
2013-06-20 04:52:00,47.7,15.3,23.95,SW,229,3.1,3.1,27,0.00,,---,0.00,VWS V14.01,2013-06-20 10:52:00,
2013-06-20 04:58:00,47.5,15.2,23.95,SW,229,2.2,2.2,27,0.00,,---,0.00,VWS V14.01,2013-06-20 10:58:00,
2013-06-20 05:03:00,46.9,14.7,23.95,SW,229,3.1,3.1,27,0.00,,---,0.00,VWS V14.01,2013-06-20 11:03:00,
2013-06-20 05:09:00,46.9,14.7,23.95,SW,229,2.2,2.2,27,0.00,,---,0.00,VWS V14.01,2013-06-20 11:09:00,
2013-06-20 05:14:00,46.6,15.2,23.95,SW,229,2.7,2.7,28,0.00,,---,0.00,VWS V14.01,2013-06-20 11:14:00,
2013-06-20 05:20:00,46.4,14.2,23.95,West,278,3.6,4.0,27,0.00,,---,0.00,VWS V14.01,2013-06-20 11:20:00,
2013-06-20 05:25:00,46.6,14.4,23.95,West,278,0.0,2.7,27,0.00,,---,0.00,VWS V14.01,2013-06-20 11:25:00,
2013-06-20 05:31:00,46.0,14.8,23.98,West,278,2.2,2.2,28,0.00,,---,0.00,VWS V14.01,2013-06-20 11:31:00,
2013-06-20 05:37:00,45.9,14.6,23.98,West,278,0.0,3.1,28,0.00,,---,0.00,VWS V14.01,2013-06-20 11:37:00,
2013-06-20 05:42:00,46.0,14.8,23.98,West,278,2.2,2.2,28,0.00,,---,0.00,VWS V14.01,2013-06-20 11:42:00,
2013-06-20 05:48:00,45.5,15.1,23.98,West,278,2.2,2.7,29,0.00,,---,0.00,VWS V14.01,2013-06-20 11:48:00,
2013-06-20 05:53:00,45.5,15.9,23.98,West,278,0.0,0.0,30,0.00,,---,0.00,VWS V14.01,2013-06-20 11:53:00,
2013-06-20 05:58:00,45.3,14.9,23.98,West,278,0.0,0.0,29,0.00,,---,0.00,VWS V14.01,2013-06-20 11:58:00,
2013-06-20 06:03:00,45.5,15.9,23.98,West,278,0.0,0.0,30,0.00,,---,0.00,VWS V14.01,2013-06-20 12:03:00,
2013-06-20 06:09:00,45.9,15.4,23.98,WNW,283,4.0,4.0,29,0.00,,---,0.00,VWS V14.01,2013-06-20 12:09:00,
2013-06-20 06:14:00,46.4,15.9,23.98,WNW,283,0.0,0.0,29,0.00,,---,0.00,VWS V14.01,2013-06-20 12:14:00,
2013-06-20 06:20:00,46.6,16.0,23.98,WNW,283,0.0,0.0,29,0.00,,---,0.00,VWS V14.01,2013-06-20 12:20:00,
2013-06-20 06:26:00,46.2,15.7,24.01,West,259,2.2,2.2,29,0.00,,---,0.00,VWS V14.01,2013-06-20 12:26:00,
2013-06-20 06:31:00,46.4,16.7,24.01,West,263,0.0,0.0,30,0.00,,---,0.00,VWS V14.01,2013-06-20 12:31:00,
2013-06-20 06:37:00,46.2,16.5,24.01,West,262,0.0,0.0,30,0.00,,---,0.00,VWS V14.01,2013-06-20 12:37:00,
2013-06-20 06:42:00,46.4,16.7,24.01,West,262,0.0,0.0,30,0.00,,---,0.00,VWS V14.01,2013-06-20 12:42:00,
2013-06-20 06:47:00,46.4,15.9,24.01,West,262,0.0,0.0,29,0.00,,---,0.00,VWS V14.01,2013-06-20 12:47:00,
2013-06-20 06:52:00,46.4,17.4,24.01,West,264,2.7,4.0,31,0.00,,---,0.00,VWS V14.01,2013-06-20 12:52:00,
2013-06-20 06:58:00,46.6,19.7,24.01,West,263,2.2,2.7,34,0.00,,---,0.00,VWS V14.01,2013-06-20 12:58:00,
2013-06-20 07:04:00,46.2,21.4,24.01,West,263,2.7,2.7,37,0.00,,---,0.00,VWS V14.01,2013-06-20 13:04:00,
2013-06-20 07:09:00,46.4,21.6,24.01,West,263,0.0,0.0,37,0.00,,---,0.00,VWS V14.01,2013-06-20 13:09:00,
2013-06-20 07:14:00,46.4,22.2,24.01,West,263,2.7,3.1,38,0.00,,---,0.00,VWS V14.01,2013-06-20 13:14:00,
2013-06-20 07:20:00,47.5,22.5,24.01,West,277,3.6,4.0,37,0.00,,---,0.00,VWS V14.01,2013-06-20 13:20:00,
2013-06-20 07:26:00,49.3,23.5,24.01,West,276,3.1,3.1,36,0.00,,---,0.00,VWS V14.01,2013-06-20 13:26:00,
2013-06-20 07:32:00,51.3,24.6,24.01,West,277,0.0,0.0,35,0.00,,---,0.00,VWS V14.01,2013-06-20 13:32:00,
2013-06-20 07:37:00,52.7,24.4,24.01,West,277,2.2,4.0,33,0.00,,---,0.00,VWS V14.01,2013-06-20 13:37:00,
2013-06-20 07:43:00,54.9,25.6,24.01,West,277,0.0,0.0,32,0.00,,---,0.00,VWS V14.01,2013-06-20 13:43:00,
2013-06-20 07:48:00,56.3,26.1,24.01,West,277,0.0,0.0,31,0.00,,---,0.00,VWS V14.01,2013-06-20 13:48:00,
2013-06-20 07:54:00,58.1,27.6,24.01,SSW,211,3.1,3.6,31,0.00,,---,0.00,VWS V14.01,2013-06-20 13:54:00,
2013-06-20 07:59:00,59.4,26.3,24.01,WNW,286,0.0,0.0,28,0.00,,---,0.00,VWS V14.01,2013-06-20 13:59:00,
2013-06-20 08:04:00,61.0,25.9,24.01,WNW,286,0.0,0.0,26,0.00,,---,0.00,VWS V14.01,2013-06-20 14:04:00,
2013-06-20 08:09:00,62.4,27.1,24.01,WNW,285,0.0,0.0,26,0.00,,---,0.00,VWS V14.01,2013-06-20 14:09:00,
2013-06-20 08:15:00,64.2,28.6,24.01,WNW,285,0.0,0.0,26,0.00,,---,0.00,VWS V14.01,2013-06-20 14:15:00,
2013-06-20 08:21:00,66.0,29.2,24.01,WNW,289,0.0,0.0,25,0.00,,---,0.00,VWS V14.01,2013-06-20 14:21:00,
2013-06-20 08:26:00,67.1,29.1,24.01,WNW,289,0.0,0.0,24,0.00,,---,0.00,VWS V14.01,2013-06-20 14:26:00,
2013-06-20 08:31:00,69.3,29.9,24.01,North,4,2.7,3.1,23,0.00,,---,0.00,VWS V14.01,2013-06-20 14:31:00,
2013-06-20 08:36:00,71.2,26.9,24.01,East,79,0.0,0.0,19,0.00,,---,0.00,VWS V14.01,2013-06-20 14:36:00,
2013-06-20 08:41:00,72.9,28.2,24.01,NE,51,4.9,4.9,19,0.00,,---,0.00,VWS V14.01,2013-06-20 14:41:00,
2013-06-20 08:47:00,73.4,24.5,24.01,East,80,7.6,9.6,16,0.00,,---,0.00,VWS V14.01,2013-06-20 14:47:00,
2013-06-20 08:52:00,73.4,24.5,24.01,NW,306,7.6,7.6,16,0.00,,---,0.00,VWS V14.01,2013-06-20 14:52:00,
2013-06-20 08:57:00,73.6,24.7,24.01,NE,39,7.6,10.5,16,0.00,,---,0.00,VWS V14.01,2013-06-20 14:57:00,
2013-06-20 09:02:00,73.9,25.0,24.01,ENE,62,4.9,8.3,16,0.00,,---,0.00,VWS V14.01,2013-06-20 15:02:00,
2013-06-20 09:07:00,73.8,24.8,24.01,North,7,4.5,6.3,16,0.00,,---,0.00,VWS V14.01,2013-06-20 15:07:00,
2013-06-20 09:12:00,73.6,24.7,24.04,North,353,8.3,10.5,16,0.00,,---,0.00,VWS V14.01,2013-06-20 15:12:00,
2013-06-20 09:18:00,73.9,25.0,24.04,ENE,68,4.0,8.7,16,0.00,,---,0.00,VWS V14.01,2013-06-20 15:18:00,
2013-06-20 09:24:00,74.1,25.1,24.04,North,0,4.0,4.0,16,0.00,,---,0.00,VWS V14.01,2013-06-20 15:24:00,
2013-06-20 09:30:00,74.3,25.2,24.04,NE,55,12.3,12.3,16,0.00,,---,0.00,VWS V14.01,2013-06-20 15:30:00,
2013-06-20 09:35:00,74.1,25.1,24.04,NNE,14,5.4,10.5,16,0.00,,---,0.00,VWS V14.01,2013-06-20 15:35:00,
2013-06-20 09:40:00,73.9,25.0,24.04,East,89,4.9,7.6,16,0.00,,---,0.00,VWS V14.01,2013-06-20 15:40:00,
2013-06-20 09:45:00,73.9,25.0,24.04,East,92,2.7,5.8,16,0.00,,---,0.00,VWS V14.01,2013-06-20 15:45:00,
2013-06-20 09:51:00,73.8,24.8,24.04,North,353,4.9,4.9,16,0.00,,---,0.00,VWS V14.01,2013-06-20 15:51:00,
2013-06-20 09:56:00,74.1,27.9,24.04,East,82,6.3,6.3,18,0.00,,---,0.00,VWS V14.01,2013-06-20 15:56:00,
2013-06-20 10:02:00,74.3,25.2,24.04,NNW,341,3.6,7.6,16,0.00,,---,0.00,VWS V14.01,2013-06-20 16:02:00,
2013-06-20 10:07:00,74.1,25.1,24.04,NE,50,4.0,6.3,16,0.00,,---,0.00,VWS V14.01,2013-06-20 16:07:00,
2013-06-20 10:13:00,74.5,25.4,24.04,NE,38,4.5,10.1,16,0.00,,---,0.00,VWS V14.01,2013-06-20 16:13:00,
2013-06-20 10:18:00,74.3,25.2,24.04,NNE,15,7.6,7.6,16,0.00,,---,0.00,VWS V14.01,2013-06-20 16:18:00,
2013-06-20 10:23:00,74.1,27.9,24.04,ENE,73,5.8,5.8,18,0.00,,---,0.00,VWS V14.01,2013-06-20 16:23:00,
2013-06-20 10:29:00,74.1,25.1,24.04,East,79,4.0,8.7,16,0.00,,---,0.00,VWS V14.01,2013-06-20 16:29:00,
2013-06-20 10:34:00,74.3,28.1,24.04,NE,52,5.8,8.3,18,0.00,,---,0.00,VWS V14.01,2013-06-20 16:34:00,
2013-06-20 10:40:00,74.3,28.1,24.04,ESE,102,2.7,6.3,18,0.00,,---,0.00,VWS V14.01,2013-06-20 16:40:00,
2013-06-20 10:46:00,74.7,28.4,24.04,NNE,27,3.6,5.4,18,0.00,,---,0.00,VWS V14.01,2013-06-20 16:46:00,
2013-06-20 10:52:00,74.5,28.2,24.04,North,357,8.3,10.1,18,0.00,,---,0.00,VWS V14.01,2013-06-20 16:52:00,
2013-06-20 10:58:00,74.5,28.2,24.04,NE,41,4.9,7.6,18,0.00,,---,0.00,VWS V14.01,2013-06-20 16:58:00,
2013-06-20 11:03:00,74.8,28.5,24.04,ENE,77,3.6,3.6,18,0.00,,---,0.00,VWS V14.01,2013-06-20 17:03:00,
2013-06-20 11:08:00,75.7,29.3,24.04,NNE,16,5.4,8.3,18,0.00,,---,0.00,VWS V14.01,2013-06-20 17:08:00,
2013-06-20 11:13:00,75.4,29.0,24.04,NNE,21,5.4,5.8,18,0.00,,---,0.00,VWS V14.01,2013-06-20 17:13:00,
2013-06-20 11:18:00,75.6,29.1,24.04,NNE,12,2.7,3.6,18,0.00,,---,0.00,VWS V14.01,2013-06-20 17:18:00,
2013-06-20 11:24:00,75.4,29.0,24.04,NNE,12,3.6,8.1,18,0.00,,---,0.00,VWS V14.01,2013-06-20 17:24:00,
2013-06-20 11:30:00,75.6,29.1,24.04,NNE,31,6.3,7.6,18,0.00,,---,0.00,VWS V14.01,2013-06-20 17:30:00,
2013-06-20 11:35:00,75.4,29.0,24.04,North,353,3.6,4.0,18,0.00,,---,0.00,VWS V14.01,2013-06-20 17:35:00,
2013-06-20 11:40:00,76.1,29.6,24.04,NE,38,4.9,8.1,18,0.00,,---,0.00,VWS V14.01,2013-06-20 17:40:00,
2013-06-20 11:45:00,76.3,29.7,24.04,NNE,23,5.8,10.5,18,0.00,,---,0.00,VWS V14.01,2013-06-20 17:45:00,
2013-06-20 11:51:00,76.6,30.0,24.04,NE,43,3.1,5.4,18,0.00,,---,0.00,VWS V14.01,2013-06-20 17:51:00,
2013-06-20 11:56:00,76.8,30.1,24.01,North,4,4.0,6.3,18,0.00,,---,0.00,VWS V14.01,2013-06-20 17:56:00,
2013-06-20 12:02:00,77.0,30.3,24.01,NE,54,3.1,4.0,18,0.00,,---,0.00,VWS V14.01,2013-06-20 18:02:00,
2013-06-20 12:07:00,77.2,30.4,24.01,NE,46,7.2,7.6,18,0.00,,---,0.00,VWS V14.01,2013-06-20 18:07:00,
2013-06-20 12:13:00,77.7,26.4,24.01,ENE,57,5.8,8.3,15,0.00,,---,0.00,VWS V14.01,2013-06-20 18:13:00,
2013-06-20 12:19:00,77.9,26.6,24.01,NE,44,3.6,6.3,15,0.00,,---,0.00,VWS V14.01,2013-06-20 18:19:00,
2013-06-20 12:25:00,78.1,26.7,24.01,NNE,33,5.8,5.8,15,0.00,,---,0.00,VWS V14.01,2013-06-20 18:25:00,
2013-06-20 12:30:00,78.3,26.9,24.01,SSE,157,5.4,10.1,15,0.00,,---,0.00,VWS V14.01,2013-06-20 18:30:00,
2013-06-20 12:36:00,78.1,26.7,24.01,North,0,7.6,9.2,15,0.00,,---,0.00,VWS V14.01,2013-06-20 18:36:00,
2013-06-20 12:41:00,77.9,26.6,24.01,NNE,23,7.2,7.2,15,0.00,,---,0.00,VWS V14.01,2013-06-20 18:41:00,
2013-06-20 12:47:00,77.9,26.6,24.01,North,9,6.3,6.7,15,0.00,,---,0.00,VWS V14.01,2013-06-20 18:47:00,
2013-06-20 12:53:00,78.3,26.9,24.01,NNE,31,5.4,6.3,15,0.00,,---,0.00,VWS V14.01,2013-06-20 18:53:00,
2013-06-20 12:58:00,78.8,27.3,24.01,North,357,8.1,10.5,15,0.00,,---,0.00,VWS V14.01,2013-06-20 18:58:00,
2013-06-20 13:04:00,78.4,27.0,24.01,NNE,27,2.7,4.9,15,0.00,,---,0.00,VWS V14.01,2013-06-20 19:04:00,
2013-06-20 13:09:00,78.8,27.3,24.01,NNE,26,6.7,8.3,15,0.00,,---,0.00,VWS V14.01,2013-06-20 19:09:00,
2013-06-20 13:14:00,78.4,27.0,24.01,NE,49,2.7,4.0,15,0.00,,---,0.00,VWS V14.01,2013-06-20 19:14:00,
2013-06-20 13:20:00,79.0,27.4,24.01,NE,38,4.9,5.8,15,0.00,,---,0.00,VWS V14.01,2013-06-20 19:20:00,
2013-06-20 13:25:00,79.0,27.4,24.01,NNE,31,4.0,7.6,15,0.00,,---,0.00,VWS V14.01,2013-06-20 19:25:00,
2013-06-20 13:30:00,79.0,27.4,24.01,NNE,24,4.9,5.4,15,0.00,,---,0.00,VWS V14.01,2013-06-20 19:30:00,
2013-06-20 13:36:00,79.3,27.7,24.01,NNE,14,5.8,8.3,15,0.00,,---,0.00,VWS V14.01,2013-06-20 19:36:00,
2013-06-20 13:42:00,79.0,27.4,24.01,North,5,7.6,7.6,15,0.00,,---,0.00,VWS V14.01,2013-06-20 19:42:00,
2013-06-20 13:47:00,79.2,27.6,24.01,North,357,5.4,5.8,15,0.00,,---,0.00,VWS V14.01,2013-06-20 19:47:00,
2013-06-20 13:52:00,79.7,28.0,24.01,NNE,16,5.4,5.4,15,0.00,,---,0.00,VWS V14.01,2013-06-20 19:52:00,
2013-06-20 13:58:00,80.1,28.3,24.01,NNE,21,7.6,7.6,15,0.00,,---,0.00,VWS V14.01,2013-06-20 19:58:00,
2013-06-20 14:04:00,80.1,28.3,24.01,NNE,29,5.8,11.4,15,0.00,,---,0.00,VWS V14.01,2013-06-20 20:04:00,
2013-06-20 14:09:00,79.9,28.1,24.01,NNE,14,6.3,7.6,15,0.00,,---,0.00,VWS V14.01,2013-06-20 20:09:00,
2013-06-20 14:14:00,79.7,28.0,24.01,NNE,27,5.4,7.6,15,0.00,,---,0.00,VWS V14.01,2013-06-20 20:14:00,
2013-06-20 14:20:00,80.1,28.3,24.01,ENE,65,3.6,3.6,15,0.00,,---,0.00,VWS V14.01,2013-06-20 20:20:00,
2013-06-20 14:25:00,80.8,27.2,24.01,NNE,20,2.7,3.1,14,0.00,,---,0.00,VWS V14.01,2013-06-20 20:25:00,
2013-06-20 14:31:00,80.8,27.2,24.01,ESE,108,3.6,6.3,14,0.00,,---,0.00,VWS V14.01,2013-06-20 20:31:00,
2013-06-20 14:36:00,80.6,27.0,24.01,NNE,24,5.8,6.3,14,0.00,,---,0.00,VWS V14.01,2013-06-20 20:36:00,
2013-06-20 14:41:00,80.8,27.2,24.01,North,11,3.6,3.6,14,0.00,,---,0.00,VWS V14.01,2013-06-20 20:41:00,
2013-06-20 14:47:00,81.3,27.6,24.01,NNE,29,6.3,8.3,14,0.00,,---,0.00,VWS V14.01,2013-06-20 20:47:00,
2013-06-20 14:52:00,81.9,28.0,24.01,NE,36,6.3,6.3,14,0.00,,---,0.00,VWS V14.01,2013-06-20 20:52:00,
2013-06-20 14:57:00,82.2,28.3,23.98,NE,45,4.9,9.2,14,0.00,,---,0.00,VWS V14.01,2013-06-20 20:57:00,
2013-06-20 15:02:00,82.4,28.5,23.98,North,2,2.7,5.8,14,0.00,,---,0.00,VWS V14.01,2013-06-20 21:02:00,
2013-06-20 15:07:00,82.6,28.6,23.98,NNE,32,2.7,6.3,14,0.00,,---,0.00,VWS V14.01,2013-06-20 21:07:00,
2013-06-20 15:13:00,82.4,28.5,23.98,NNE,17,5.4,8.7,14,0.00,,---,0.00,VWS V14.01,2013-06-20 21:13:00,
2013-06-20 15:18:00,82.6,28.6,23.98,ENE,73,4.9,4.9,14,0.00,,---,0.00,VWS V14.01,2013-06-20 21:18:00,
2013-06-20 15:24:00,82.6,28.6,23.98,NE,47,8.3,8.3,14,0.00,,---,0.00,VWS V14.01,2013-06-20 21:24:00,
2013-06-20 15:29:00,82.8,28.8,23.98,WNW,297,0.0,0.0,14,0.00,,---,0.00,VWS V14.01,2013-06-20 21:29:00,
2013-06-20 15:35:00,84.2,28.1,23.98,East,83,3.1,4.0,13,0.00,,---,0.00,VWS V14.01,2013-06-20 21:35:00,
2013-06-20 15:40:00,84.6,28.4,23.98,NNE,17,7.6,7.6,13,0.00,,---,0.00,VWS V14.01,2013-06-20 21:40:00,
2013-06-20 15:45:00,83.5,29.3,23.98,NE,37,3.1,6.3,14,0.00,,---,0.00,VWS V14.01,2013-06-20 21:45:00,
2013-06-20 15:50:00,83.8,29.6,23.98,NE,43,0.0,3.6,14,0.00,,---,0.00,VWS V14.01,2013-06-20 21:50:00,
2013-06-20 15:56:00,83.8,29.6,23.98,North,8,5.4,7.6,14,0.00,,---,0.00,VWS V14.01,2013-06-20 21:56:00,
2013-06-20 16:01:00,83.5,29.3,23.98,ENE,76,3.1,4.9,14,0.00,,---,0.00,VWS V14.01,2013-06-20 22:01:00,
2013-06-20 16:07:00,83.3,29.2,23.98,NNE,27,4.0,7.6,14,0.00,,---,0.00,VWS V14.01,2013-06-20 22:07:00,
2013-06-20 16:13:00,83.1,29.0,23.98,ENE,62,3.6,6.3,14,0.00,,---,0.00,VWS V14.01,2013-06-20 22:13:00,
2013-06-20 16:18:00,83.7,29.5,23.98,East,84,0.0,2.7,14,0.00,,---,0.00,VWS V14.01,2013-06-20 22:18:00,
2013-06-20 16:24:00,84.2,28.1,23.98,SW,219,0.0,2.7,13,0.00,,---,0.00,VWS V14.01,2013-06-20 22:24:00,
2013-06-20 16:29:00,84.9,28.6,23.95,ESE,103,5.8,6.7,13,0.00,,---,0.00,VWS V14.01,2013-06-20 22:29:00,
2013-06-20 16:34:00,84.6,28.4,23.95,SSE,147,3.1,5.4,13,0.00,,---,0.00,VWS V14.01,2013-06-20 22:34:00,
2013-06-20 16:39:00,84.2,28.1,23.95,East,87,4.0,4.0,13,0.00,,---,0.00,VWS V14.01,2013-06-20 22:39:00,
2013-06-20 16:45:00,83.8,29.6,23.98,ESE,117,3.6,3.6,14,0.00,,---,0.00,VWS V14.01,2013-06-20 22:45:00,
2013-06-20 16:51:00,83.7,29.5,23.98,SSW,205,4.9,5.4,14,0.00,,---,0.00,VWS V14.01,2013-06-20 22:51:00,
2013-06-20 16:56:00,83.7,29.5,23.98,South,191,0.0,2.2,14,0.00,,---,0.00,VWS V14.01,2013-06-20 22:56:00,
2013-06-20 17:02:00,84.0,29.8,23.98,NNE,14,3.1,3.1,14,0.00,,---,0.00,VWS V14.01,2013-06-20 23:02:00,
2013-06-20 17:07:00,83.7,29.5,23.98,ESE,111,3.6,5.8,14,0.00,,---,0.00,VWS V14.01,2013-06-20 23:07:00,
2013-06-20 17:12:00,82.9,28.9,23.95,NE,41,2.7,2.7,14,0.00,,---,0.00,VWS V14.01,2013-06-20 23:12:00,
2013-06-20 17:17:00,82.2,28.3,23.95,ESE,109,2.2,2.2,14,0.00,,---,0.00,VWS V14.01,2013-06-20 23:17:00,
2013-06-20 17:22:00,82.0,28.2,23.95,North,357,0.0,0.0,14,0.00,,---,0.00,VWS V14.01,2013-06-20 23:22:00,
2013-06-20 17:28:00,81.9,28.0,23.95,NE,55,3.1,3.6,14,0.00,,---,0.00,VWS V14.01,2013-06-20 23:28:00,
2013-06-20 17:34:00,82.9,28.9,23.95,NE,43,3.6,3.6,14,0.00,,---,0.00,VWS V14.01,2013-06-20 23:34:00,
2013-06-20 17:39:00,84.0,29.8,23.95,NE,46,5.8,5.8,14,0.00,,---,0.00,VWS V14.01,2013-06-20 23:39:00,
2013-06-20 17:45:00,83.3,29.2,23.95,NE,35,2.7,2.7,14,0.00,,---,0.00,VWS V14.01,2013-06-20 23:45:00,
2013-06-20 17:50:00,82.6,28.6,23.95,NNE,25,3.6,4.0,14,0.00,,---,0.00,VWS V14.01,2013-06-20 23:50:00,
2013-06-20 17:56:00,81.5,27.8,23.95,SE,142,4.0,6.3,14,0.00,,---,0.00,VWS V14.01,2013-06-20 23:56:00,
2013-06-20 18:01:00,81.0,27.3,23.95,SSE,148,2.7,5.8,14,0.00,,---,0.00,VWS V14.01,2013-06-21 00:01:00,
2013-06-20 18:06:00,81.0,27.3,23.95,SSE,151,0.0,0.0,14,0.00,,---,0.00,VWS V14.01,2013-06-21 00:06:00,
2013-06-20 18:11:00,81.0,27.3,23.95,SW,215,3.1,3.1,14,0.00,,---,0.00,VWS V14.01,2013-06-21 00:11:00,
2013-06-20 18:16:00,81.5,27.8,23.95,ESE,107,2.7,4.0,14,0.00,,---,0.00,VWS V14.01,2013-06-21 00:16:00,
2013-06-20 18:22:00,82.0,28.2,23.95,ESE,107,3.1,4.0,14,0.00,,---,0.00,VWS V14.01,2013-06-21 00:22:00,
2013-06-20 18:27:00,81.9,28.0,23.95,ESE,111,3.6,5.4,14,0.00,,---,0.00,VWS V14.01,2013-06-21 00:27:00,
2013-06-20 18:33:00,81.1,27.5,23.95,ESE,108,3.1,4.9,14,0.00,,---,0.00,VWS V14.01,2013-06-21 00:33:00,
2013-06-20 18:39:00,81.0,27.3,23.95,ENE,61,0.0,0.0,14,0.00,,---,0.00,VWS V14.01,2013-06-21 00:39:00,
2013-06-20 18:44:00,81.1,27.5,23.95,ENE,61,0.0,0.0,14,0.00,,---,0.00,VWS V14.01,2013-06-21 00:44:00,
2013-06-20 18:49:00,81.1,27.5,23.95,ENE,61,0.0,0.0,14,0.00,,---,0.00,VWS V14.01,2013-06-21 00:49:00,
2013-06-20 18:55:00,80.4,28.6,23.95,ENE,61,0.0,0.0,15,0.00,,---,0.00,VWS V14.01,2013-06-21 00:55:00,
2013-06-20 19:01:00,80.4,28.6,23.95,ENE,61,0.0,0.0,15,0.00,,---,0.00,VWS V14.01,2013-06-21 01:01:00,
2013-06-20 19:06:00,80.1,28.3,23.95,ENE,58,0.0,0.0,15,0.00,,---,0.00,VWS V14.01,2013-06-21 01:06:00,
2013-06-20 19:12:00,79.7,28.0,23.95,ESE,122,0.0,2.2,15,0.00,,---,0.00,VWS V14.01,2013-06-21 01:12:00,
2013-06-20 19:18:00,79.2,27.6,23.95,NE,42,0.0,0.0,15,0.00,,---,0.00,VWS V14.01,2013-06-21 01:18:00,
2013-06-20 19:23:00,78.4,27.0,23.95,South,173,3.1,3.6,15,0.00,,---,0.00,VWS V14.01,2013-06-21 01:23:00,
2013-06-20 19:28:00,78.4,27.0,23.95,South,191,4.0,4.0,15,0.00,,---,0.00,VWS V14.01,2013-06-21 01:28:00,
2013-06-20 19:34:00,78.6,27.1,23.95,ESE,114,2.2,2.7,15,0.00,,---,0.00,VWS V14.01,2013-06-21 01:34:00,
2013-06-20 19:39:00,78.6,27.1,23.95,ESE,114,0.0,0.0,15,0.00,,---,0.00,VWS V14.01,2013-06-21 01:39:00,
2013-06-20 19:44:00,77.9,26.6,23.95,SW,232,0.0,0.0,15,0.00,,---,0.00,VWS V14.01,2013-06-21 01:44:00,
2013-06-20 19:50:00,77.0,25.9,23.95,SW,232,0.0,0.0,15,0.00,,---,0.00,VWS V14.01,2013-06-21 01:50:00,
2013-06-20 19:55:00,75.9,25.0,23.95,SW,232,0.0,0.0,15,0.00,,---,0.00,VWS V14.01,2013-06-21 01:55:00,
2013-06-20 20:01:00,75.0,25.8,23.95,SW,232,0.0,0.0,16,0.00,,---,0.00,VWS V14.01,2013-06-21 02:01:00,
2013-06-20 20:07:00,74.3,25.2,23.95,SW,232,0.0,0.0,16,0.00,,---,0.00,VWS V14.01,2013-06-21 02:07:00,
2013-06-20 20:13:00,73.8,24.8,23.98,SW,232,0.0,0.0,16,0.00,,---,0.00,VWS V14.01,2013-06-21 02:13:00,
2013-06-20 20:19:00,72.9,24.1,23.98,SW,233,0.0,0.0,16,0.00,,---,0.00,VWS V14.01,2013-06-21 02:19:00,
2013-06-20 20:24:00,72.9,24.1,23.98,SW,233,0.0,0.0,16,0.00,,---,0.00,VWS V14.01,2013-06-21 02:24:00,
2013-06-20 20:29:00,72.3,23.6,23.98,SW,233,0.0,0.0,16,0.00,,---,0.00,VWS V14.01,2013-06-21 02:29:00,
2013-06-20 20:34:00,72.0,23.4,23.98,SW,232,0.0,0.0,16,0.00,,---,0.00,VWS V14.01,2013-06-21 02:34:00,
2013-06-20 20:40:00,71.4,24.4,23.98,SW,233,0.0,0.0,17,0.00,,---,0.00,VWS V14.01,2013-06-21 02:40:00,
2013-06-20 20:46:00,70.7,23.8,23.98,SW,233,0.0,0.0,17,0.00,,---,0.00,VWS V14.01,2013-06-21 02:46:00,
2013-06-20 20:51:00,70.3,23.5,23.98,SW,233,0.0,0.0,17,0.00,,---,0.00,VWS V14.01,2013-06-21 02:51:00,
2013-06-20 20:57:00,69.6,26.8,23.98,SW,219,0.0,0.0,20,0.00,,---,0.00,VWS V14.01,2013-06-21 02:57:00,
2013-06-20 21:03:00,68.5,25.9,23.98,SSW,212,0.0,0.0,20,0.00,,---,0.00,VWS V14.01,2013-06-21 03:03:00,
2013-06-20 21:08:00,68.7,26.1,23.98,SSW,212,0.0,0.0,20,0.00,,---,0.00,VWS V14.01,2013-06-21 03:08:00,
2013-06-20 21:14:00,68.9,26.2,23.98,SW,218,0.0,0.0,20,0.00,,---,0.00,VWS V14.01,2013-06-21 03:14:00,
2013-06-20 21:19:00,68.2,25.6,23.98,SW,218,0.0,0.0,20,0.00,,---,0.00,VWS V14.01,2013-06-21 03:19:00,
2013-06-20 21:25:00,67.6,25.2,23.98,SW,218,0.0,0.0,20,0.00,,---,0.00,VWS V14.01,2013-06-21 03:25:00,
2013-06-20 21:30:00,67.3,24.9,23.98,SW,218,0.0,0.0,20,0.00,,---,0.00,VWS V14.01,2013-06-21 03:30:00,
2013-06-20 21:35:00,66.6,24.3,23.98,SW,218,0.0,0.0,20,0.00,,---,0.00,VWS V14.01,2013-06-21 03:35:00,
2013-06-20 21:41:00,66.0,23.8,23.98,West,271,0.0,2.7,20,0.00,,---,0.00,VWS V14.01,2013-06-21 03:41:00,
2013-06-20 21:46:00,65.5,23.4,24.01,West,271,2.7,2.7,20,0.00,,---,0.00,VWS V14.01,2013-06-21 03:46:00,
2013-06-20 21:52:00,64.8,22.8,24.01,West,271,0.0,2.2,20,0.00,,---,0.00,VWS V14.01,2013-06-21 03:52:00,
2013-06-20 21:57:00,64.2,23.5,24.01,West,271,2.2,2.2,21,0.00,,---,0.00,VWS V14.01,2013-06-21 03:57:00,
2013-06-20 22:01:00,64.0,23.3,24.01,West,271,0.0,0.0,21,0.00,,---,0.00,VWS V14.01,2013-06-21 04:01:00,
2013-06-20 22:02:00,64.0,23.3,24.01,West,271,0.0,0.0,21,0.00,,---,0.00,VWS V14.01,2013-06-21 04:02:00,
2013-06-20 22:04:00,64.0,23.3,24.01,West,271,0.0,0.0,21,0.00,,---,0.00,VWS V14.01,2013-06-21 04:04:00,
2013-06-20 22:06:00,64.0,23.3,24.01,West,271,0.0,0.0,21,0.00,,---,0.00,VWS V14.01,2013-06-21 04:06:00,
2013-06-20 22:08:00,63.9,23.2,24.01,West,271,0.0,0.0,21,0.00,,---,0.00,VWS V14.01,2013-06-21 04:08:00,
2013-06-20 22:13:00,63.9,23.2,24.01,West,271,0.0,0.0,21,0.00,,---,0.00,VWS V14.01,2013-06-21 04:13:00,
2013-06-20 22:18:00,64.2,23.5,24.01,West,271,0.0,0.0,21,0.00,,---,0.00,VWS V14.01,2013-06-21 04:18:00,
2013-06-20 22:23:00,64.0,23.3,24.01,West,271,0.0,0.0,21,0.00,,---,0.00,VWS V14.01,2013-06-21 04:23:00,
2013-06-20 22:28:00,63.5,22.9,24.01,West,271,0.0,0.0,21,0.00,,---,0.00,VWS V14.01,2013-06-21 04:28:00,
2013-06-20 22:33:00,63.1,22.6,24.01,West,276,3.6,3.6,21,0.00,,---,0.00,VWS V14.01,2013-06-21 04:33:00,
2013-06-20 22:39:00,63.0,24.6,24.01,West,275,2.2,2.7,23,0.00,,---,0.00,VWS V14.01,2013-06-21 04:39:00,
2013-06-20 22:44:00,62.4,25.2,24.04,West,275,2.2,2.7,24,0.00,,---,0.00,VWS V14.01,2013-06-21 04:44:00,
2013-06-20 22:50:00,62.1,24.9,24.04,West,275,2.7,2.7,24,0.00,,---,0.00,VWS V14.01,2013-06-21 04:50:00,
2013-06-20 22:55:00,61.7,24.6,24.04,West,275,0.0,0.0,24,0.00,,---,0.00,VWS V14.01,2013-06-21 04:55:00,
2013-06-20 23:01:00,61.5,24.4,24.04,West,275,0.0,0.0,24,0.00,,---,0.00,VWS V14.01,2013-06-21 05:01:00,
2013-06-20 23:07:00,61.3,24.3,24.04,West,275,0.0,0.0,24,0.00,,---,0.00,VWS V14.01,2013-06-21 05:07:00,
2013-06-20 23:12:00,61.2,24.1,24.04,West,275,0.0,0.0,24,0.00,,---,0.00,VWS V14.01,2013-06-21 05:12:00,
2013-06-20 23:17:00,60.8,23.8,24.04,West,275,0.0,0.0,24,0.00,,---,0.00,VWS V14.01,2013-06-21 05:17:00,
2013-06-20 23:22:00,60.4,23.5,24.04,West,275,0.0,0.0,24,0.00,,---,0.00,VWS V14.01,2013-06-21 05:22:00,
2013-06-20 23:28:00,59.9,23.0,24.04,West,275,0.0,0.0,24,0.00,,---,0.00,VWS V14.01,2013-06-21 05:28:00,
2013-06-20 23:34:00,59.5,23.7,24.04,West,274,0.0,0.0,25,0.00,,---,0.00,VWS V14.01,2013-06-21 05:34:00,
2013-06-20 23:39:00,59.2,23.4,24.04,West,274,0.0,0.0,25,0.00,,---,0.00,VWS V14.01,2013-06-21 05:39:00,
2013-06-20 23:45:00,58.8,23.1,24.04,West,274,0.0,0.0,25,0.00,,---,0.00,VWS V14.01,2013-06-21 05:45:00,
2013-06-20 23:50:00,58.8,23.1,24.04,West,274,0.0,0.0,25,0.00,,---,0.00,VWS V14.01,2013-06-21 05:50:00,
2013-06-20 23:56:00,59.2,23.4,24.04,West,274,0.0,0.0,25,0.00,,---,0.00,VWS V14.01,2013-06-21 05:56:00,